sensor_id;sensor_type;location;lat;lon;timestamp;P1;durP1;ratioP1;P2;durP2;ratioP2
78004;SDS011;67209;51.698;-0.292;2023-11-22T00:00:32;7.05;;;2.30;;
78004;SDS011;67209;51.698;-0.292;2023-11-22T00:02:58;5.68;;;1.88;;
78004;SDS011;67209;51.698;-0.292;2023-11-22T00:05:24;5.60;;;1.90;;
78004;SDS011;67209;51.698;-0.292;2023-11-22T00:07:50;5.93;;;1.80;;
78004;SDS011;67209;51.698;-0.292;2023-11-22T00:10:16;6.05;;;1.63;;
78004;SDS011;67209;51.698;-0.292;2023-11-22T00:12:43;3.50;;;1.50;;
78004;SDS011;67209;51.698;-0.292;2023-11-22T00:15:09;3.55;;;1.80;;
78004;SDS011;67209;51.698;-0.292;2023-11-22T00:17:36;4.22;;;1.50;;
78004;SDS011;67209;51.698;-0.292;2023-11-22T00:20:03;4.40;;;1.33;;
78004;SDS011;67209;51.698;-0.292;2023-11-22T00:22:31;5.75;;;1.73;;
78004;SDS011;67209;51.698;-0.292;2023-11-22T00:24:58;4.00;;;1.52;;
78004;SDS011;67209;51.698;-0.292;2023-11-22T00:27:24;8.77;;;1.88;;
78004;SDS011;67209;51.698;-0.292;2023-11-22T00:29:50;6.20;;;1.58;;
78004;SDS011;67209;51.698;-0.292;2023-11-22T00:32:17;5.10;;;1.67;;
78004;SDS011;67209;51.698;-0.292;2023-11-22T00:34:44;5.20;;;1.40;;
78004;SDS011;67209;51.698;-0.292;2023-11-22T00:37:10;3.80;;;1.50;;
78004;SDS011;67209;51.698;-0.292;2023-11-22T00:39:36;7.80;;;1.95;;
78004;SDS011;67209;51.698;-0.292;2023-11-22T00:42:02;5.85;;;1.80;;
78004;SDS011;67209;51.698;-0.292;2023-11-22T00:44:29;4.45;;;1.25;;
78004;SDS011;67209;51.698;-0.292;2023-11-22T00:46:55;3.58;;;1.52;;
78004;SDS011;67209;51.698;-0.292;2023-11-22T00:49:22;4.85;;;1.73;;
78004;SDS011;67209;51.698;-0.292;2023-11-22T00:51:48;10.20;;;1.98;;
78004;SDS011;67209;51.698;-0.292;2023-11-22T00:54:15;8.10;;;1.80;;
78004;SDS011;67209;51.698;-0.292;2023-11-22T00:56:42;4.28;;;1.50;;
78004;SDS011;67209;51.698;-0.292;2023-11-22T00:59:08;4.03;;;1.63;;
78004;SDS011;67209;51.698;-0.292;2023-11-22T01:01:34;4.07;;;1.80;;
78004;SDS011;67209;51.698;-0.292;2023-11-22T01:04:00;5.25;;;1.58;;
78004;SDS011;67209;51.698;-0.292;2023-11-22T01:06:26;8.27;;;2.17;;
78004;SDS011;67209;51.698;-0.292;2023-11-22T01:08:54;6.55;;;2.20;;
78004;SDS011;67209;51.698;-0.292;2023-11-22T01:11:20;3.80;;;2.20;;
78004;SDS011;67209;51.698;-0.292;2023-11-22T01:13:46;6.72;;;2.28;;
78004;SDS011;67209;51.698;-0.292;2023-11-22T01:16:12;6.30;;;1.88;;
78004;SDS011;67209;51.698;-0.292;2023-11-22T01:18:38;6.13;;;2.05;;
78004;SDS011;67209;51.698;-0.292;2023-11-22T01:21:04;6.32;;;1.67;;
78004;SDS011;67209;51.698;-0.292;2023-11-22T01:23:31;5.35;;;1.92;;
78004;SDS011;67209;51.698;-0.292;2023-11-22T01:25:58;3.80;;;1.65;;
78004;SDS011;67209;51.698;-0.292;2023-11-22T01:28:25;5.30;;;1.90;;
78004;SDS011;67209;51.698;-0.292;2023-11-22T01:30:52;5.20;;;1.77;;
78004;SDS011;67209;51.698;-0.292;2023-11-22T01:33:19;6.22;;;1.88;;
78004;SDS011;67209;51.698;-0.292;2023-11-22T01:35:45;6.82;;;2.05;;
78004;SDS011;67209;51.698;-0.292;2023-11-22T01:38:11;8.27;;;2.00;;
78004;SDS011;67209;51.698;-0.292;2023-11-22T01:40:43;15.13;;;2.53;;
78004;SDS011;67209;51.698;-0.292;2023-11-22T01:43:12;4.65;;;2.00;;
78004;SDS011;67209;51.698;-0.292;2023-11-22T01:45:38;6.63;;;2.25;;
78004;SDS011;67209;51.698;-0.292;2023-11-22T01:48:04;6.80;;;2.15;;
78004;SDS011;67209;51.698;-0.292;2023-11-22T01:50:31;4.65;;;1.92;;
78004;SDS011;67209;51.698;-0.292;2023-11-22T01:52:58;5.53;;;2.00;;
78004;SDS011;67209;51.698;-0.292;2023-11-22T01:55:24;3.83;;;2.00;;
78004;SDS011;67209;51.698;-0.292;2023-11-22T01:57:51;7.30;;;2.00;;
78004;SDS011;67209;51.698;-0.292;2023-11-22T02:00:17;6.50;;;2.20;;
78004;SDS011;67209;51.698;-0.292;2023-11-22T02:02:44;5.15;;;2.13;;
78004;SDS011;67209;51.698;-0.292;2023-11-22T02:05:10;5.82;;;2.03;;
78004;SDS011;67209;51.698;-0.292;2023-11-22T02:07:37;6.60;;;2.08;;
78004;SDS011;67209;51.698;-0.292;2023-11-22T02:10:05;5.50;;;2.05;;
78004;SDS011;67209;51.698;-0.292;2023-11-22T02:12:32;6.88;;;1.80;;
78004;SDS011;67209;51.698;-0.292;2023-11-22T02:14:58;5.60;;;1.90;;
78004;SDS011;67209;51.698;-0.292;2023-11-22T02:17:24;7.40;;;1.90;;
78004;SDS011;67209;51.698;-0.292;2023-11-22T02:19:50;6.68;;;1.80;;
78004;SDS011;67209;51.698;-0.292;2023-11-22T02:22:17;9.70;;;2.03;;
78004;SDS011;67209;51.698;-0.292;2023-11-22T02:24:43;6.97;;;2.05;;
78004;SDS011;67209;51.698;-0.292;2023-11-22T02:27:09;4.53;;;2.45;;
78004;SDS011;67209;51.698;-0.292;2023-11-22T02:29:36;6.95;;;2.15;;
78004;SDS011;67209;51.698;-0.292;2023-11-22T02:32:02;7.07;;;2.22;;
78004;SDS011;67209;51.698;-0.292;2023-11-22T02:34:29;5.97;;;2.30;;
78004;SDS011;67209;51.698;-0.292;2023-11-22T02:36:55;6.72;;;1.92;;
78004;SDS011;67209;51.698;-0.292;2023-11-22T02:39:24;8.18;;;1.90;;
78004;SDS011;67209;51.698;-0.292;2023-11-22T02:41:54;10.00;;;2.03;;
78004;SDS011;67209;51.698;-0.292;2023-11-22T02:44:21;5.35;;;1.95;;
78004;SDS011;67209;51.698;-0.292;2023-11-22T02:46:47;4.45;;;1.77;;
78004;SDS011;67209;51.698;-0.292;2023-11-22T02:49:13;8.82;;;1.88;;
78004;SDS011;67209;51.698;-0.292;2023-11-22T02:51:39;7.57;;;2.50;;
78004;SDS011;67209;51.698;-0.292;2023-11-22T02:54:05;5.85;;;1.90;;
78004;SDS011;67209;51.698;-0.292;2023-11-22T02:56:31;6.80;;;2.60;;
78004;SDS011;67209;51.698;-0.292;2023-11-22T02:58:58;8.18;;;2.13;;
78004;SDS011;67209;51.698;-0.292;2023-11-22T03:01:24;7.15;;;2.20;;
78004;SDS011;67209;51.698;-0.292;2023-11-22T03:03:51;5.75;;;2.15;;
78004;SDS011;67209;51.698;-0.292;2023-11-22T03:06:17;6.25;;;2.13;;
78004;SDS011;67209;51.698;-0.292;2023-11-22T03:08:43;6.18;;;2.22;;
78004;SDS011;67209;51.698;-0.292;2023-11-22T03:11:09;6.75;;;2.00;;
78004;SDS011;67209;51.698;-0.292;2023-11-22T03:13:36;5.95;;;2.17;;
78004;SDS011;67209;51.698;-0.292;2023-11-22T03:16:02;5.72;;;1.80;;
78004;SDS011;67209;51.698;-0.292;2023-11-22T03:18:28;5.13;;;2.10;;
78004;SDS011;67209;51.698;-0.292;2023-11-22T03:20:54;7.20;;;2.53;;
78004;SDS011;67209;51.698;-0.292;2023-11-22T03:23:22;6.07;;;2.05;;
78004;SDS011;67209;51.698;-0.292;2023-11-22T03:25:48;5.43;;;1.80;;
78004;SDS011;67209;51.698;-0.292;2023-11-22T03:28:14;7.32;;;2.10;;
78004;SDS011;67209;51.698;-0.292;2023-11-22T03:30:40;10.43;;;2.50;;
78004;SDS011;67209;51.698;-0.292;2023-11-22T03:33:06;10.20;;;2.13;;
78004;SDS011;67209;51.698;-0.292;2023-11-22T03:35:33;5.60;;;1.85;;
78004;SDS011;67209;51.698;-0.292;2023-11-22T03:37:59;4.25;;;2.20;;
78004;SDS011;67209;51.698;-0.292;2023-11-22T03:40:25;6.15;;;2.22;;
78004;SDS011;67209;51.698;-0.292;2023-11-22T03:42:51;3.88;;;1.90;;
78004;SDS011;67209;51.698;-0.292;2023-11-22T03:45:17;4.90;;;2.00;;
78004;SDS011;67209;51.698;-0.292;2023-11-22T03:47:43;8.95;;;2.20;;
78004;SDS011;67209;51.698;-0.292;2023-11-22T03:50:09;13.15;;;2.53;;
78004;SDS011;67209;51.698;-0.292;2023-11-22T03:52:35;6.10;;;2.92;;
78004;SDS011;67209;51.698;-0.292;2023-11-22T03:55:01;6.03;;;2.22;;
78004;SDS011;67209;51.698;-0.292;2023-11-22T03:57:28;5.50;;;2.47;;
78004;SDS011;67209;51.698;-0.292;2023-11-22T03:59:54;5.18;;;2.00;;
78004;SDS011;67209;51.698;-0.292;2023-11-22T04:02:20;8.23;;;2.53;;
78004;SDS011;67209;51.698;-0.292;2023-11-22T04:04:46;6.93;;;2.35;;
78004;SDS011;67209;51.698;-0.292;2023-11-22T04:07:12;5.07;;;2.13;;
78004;SDS011;67209;51.698;-0.292;2023-11-22T04:09:39;8.07;;;2.40;;
78004;SDS011;67209;51.698;-0.292;2023-11-22T04:12:05;7.28;;;2.60;;
78004;SDS011;67209;51.698;-0.292;2023-11-22T04:14:31;5.10;;;2.53;;
78004;SDS011;67209;51.698;-0.292;2023-11-22T04:16:57;5.90;;;2.35;;
78004;SDS011;67209;51.698;-0.292;2023-11-22T04:19:23;4.90;;;2.17;;
78004;SDS011;67209;51.698;-0.292;2023-11-22T04:21:49;7.32;;;2.15;;
78004;SDS011;67209;51.698;-0.292;2023-11-22T04:24:19;5.10;;;2.25;;
78004;SDS011;67209;51.698;-0.292;2023-11-22T04:26:45;7.07;;;2.50;;
78004;SDS011;67209;51.698;-0.292;2023-11-22T04:29:11;7.93;;;2.33;;
78004;SDS011;67209;51.698;-0.292;2023-11-22T04:31:37;7.78;;;3.17;;
78004;SDS011;67209;51.698;-0.292;2023-11-22T04:34:03;7.28;;;3.03;;
78004;SDS011;67209;51.698;-0.292;2023-11-22T04:36:29;11.70;;;3.60;;
78004;SDS011;67209;51.698;-0.292;2023-11-22T04:38:56;5.63;;;3.03;;
78004;SDS011;67209;51.698;-0.292;2023-11-22T04:41:22;9.35;;;3.42;;
78004;SDS011;67209;51.698;-0.292;2023-11-22T04:43:50;9.57;;;3.67;;
78004;SDS011;67209;51.698;-0.292;2023-11-22T04:46:16;6.28;;;3.17;;
78004;SDS011;67209;51.698;-0.292;2023-11-22T04:48:42;9.70;;;3.72;;
78004;SDS011;67209;51.698;-0.292;2023-11-22T04:51:10;8.02;;;3.15;;
78004;SDS011;67209;51.698;-0.292;2023-11-22T04:53:36;9.80;;;3.90;;
78004;SDS011;67209;51.698;-0.292;2023-11-22T04:56:02;10.23;;;3.42;;
78004;SDS011;67209;51.698;-0.292;2023-11-22T04:58:31;14.70;;;3.95;;
78004;SDS011;67209;51.698;-0.292;2023-11-22T05:00:58;7.95;;;2.95;;
78004;SDS011;67209;51.698;-0.292;2023-11-22T05:03:24;11.13;;;3.45;;
78004;SDS011;67209;51.698;-0.292;2023-11-22T05:05:50;9.90;;;3.70;;
78004;SDS011;67209;51.698;-0.292;2023-11-22T05:08:16;12.65;;;3.95;;
78004;SDS011;67209;51.698;-0.292;2023-11-22T05:10:42;9.15;;;3.33;;
78004;SDS011;67209;51.698;-0.292;2023-11-22T05:13:09;8.30;;;3.22;;
78004;SDS011;67209;51.698;-0.292;2023-11-22T05:15:36;9.70;;;3.35;;
78004;SDS011;67209;51.698;-0.292;2023-11-22T05:18:02;8.32;;;3.25;;
78004;SDS011;67209;51.698;-0.292;2023-11-22T05:20:29;10.25;;;4.00;;
78004;SDS011;67209;51.698;-0.292;2023-11-22T05:22:55;10.30;;;3.47;;
78004;SDS011;67209;51.698;-0.292;2023-11-22T05:25:21;14.13;;;3.92;;
78004;SDS011;67209;51.698;-0.292;2023-11-22T05:27:47;12.27;;;3.85;;
78004;SDS011;67209;51.698;-0.292;2023-11-22T05:30:15;9.98;;;3.75;;
78004;SDS011;67209;51.698;-0.292;2023-11-22T05:32:41;10.93;;;3.80;;
78004;SDS011;67209;51.698;-0.292;2023-11-22T05:35:08;5.90;;;3.10;;
78004;SDS011;67209;51.698;-0.292;2023-11-22T05:37:35;9.23;;;3.78;;
78004;SDS011;67209;51.698;-0.292;2023-11-22T05:40:02;8.02;;;3.47;;
78004;SDS011;67209;51.698;-0.292;2023-11-22T05:42:28;10.18;;;3.83;;
78004;SDS011;67209;51.698;-0.292;2023-11-22T05:44:54;8.52;;;3.78;;
78004;SDS011;67209;51.698;-0.292;2023-11-22T05:47:20;10.15;;;3.97;;
78004;SDS011;67209;51.698;-0.292;2023-11-22T05:49:47;9.00;;;3.92;;
78004;SDS011;67209;51.698;-0.292;2023-11-22T05:52:13;10.40;;;3.47;;
78004;SDS011;67209;51.698;-0.292;2023-11-22T05:54:39;9.45;;;3.90;;
78004;SDS011;67209;51.698;-0.292;2023-11-22T05:57:05;9.25;;;3.78;;
78004;SDS011;67209;51.698;-0.292;2023-11-22T05:59:31;9.55;;;4.75;;
78004;SDS011;67209;51.698;-0.292;2023-11-22T06:01:57;10.02;;;4.10;;
78004;SDS011;67209;51.698;-0.292;2023-11-22T06:04:23;9.40;;;4.30;;
78004;SDS011;67209;51.698;-0.292;2023-11-22T06:06:49;11.70;;;4.10;;
78004;SDS011;67209;51.698;-0.292;2023-11-22T06:09:16;10.32;;;4.25;;
78004;SDS011;67209;51.698;-0.292;2023-11-22T06:11:42;12.52;;;4.53;;
78004;SDS011;67209;51.698;-0.292;2023-11-22T06:14:08;10.18;;;4.93;;
78004;SDS011;67209;51.698;-0.292;2023-11-22T06:16:34;11.07;;;4.30;;
78004;SDS011;67209;51.698;-0.292;2023-11-22T06:19:00;9.13;;;4.55;;
78004;SDS011;67209;51.698;-0.292;2023-11-22T06:21:26;8.85;;;4.43;;
78004;SDS011;67209;51.698;-0.292;2023-11-22T06:23:53;10.70;;;4.47;;
78004;SDS011;67209;51.698;-0.292;2023-11-22T06:26:22;13.43;;;4.85;;
78004;SDS011;67209;51.698;-0.292;2023-11-22T06:28:49;8.88;;;4.50;;
78004;SDS011;67209;51.698;-0.292;2023-11-22T06:31:15;10.35;;;3.97;;
78004;SDS011;67209;51.698;-0.292;2023-11-22T06:33:41;12.48;;;4.78;;
78004;SDS011;67209;51.698;-0.292;2023-11-22T06:36:07;13.23;;;4.30;;
78004;SDS011;67209;51.698;-0.292;2023-11-22T06:38:36;11.25;;;4.93;;
78004;SDS011;67209;51.698;-0.292;2023-11-22T06:41:02;13.48;;;4.93;;
78004;SDS011;67209;51.698;-0.292;2023-11-22T06:43:28;10.27;;;4.85;;
78004;SDS011;67209;51.698;-0.292;2023-11-22T06:45:54;13.90;;;4.90;;
78004;SDS011;67209;51.698;-0.292;2023-11-22T06:48:20;13.65;;;4.78;;
78004;SDS011;67209;51.698;-0.292;2023-11-22T06:50:47;9.93;;;4.55;;
78004;SDS011;67209;51.698;-0.292;2023-11-22T06:53:13;10.73;;;4.68;;
78004;SDS011;67209;51.698;-0.292;2023-11-22T06:55:40;10.77;;;4.40;;
78004;SDS011;67209;51.698;-0.292;2023-11-22T06:58:06;14.02;;;5.43;;
78004;SDS011;67209;51.698;-0.292;2023-11-22T07:00:33;13.00;;;5.00;;
78004;SDS011;67209;51.698;-0.292;2023-11-22T07:02:59;10.95;;;4.63;;
78004;SDS011;67209;51.698;-0.292;2023-11-22T07:05:26;14.60;;;5.00;;
78004;SDS011;67209;51.698;-0.292;2023-11-22T07:07:54;9.82;;;4.50;;
78004;SDS011;67209;51.698;-0.292;2023-11-22T07:10:20;9.65;;;4.40;;
78004;SDS011;67209;51.698;-0.292;2023-11-22T07:12:47;14.45;;;4.85;;
78004;SDS011;67209;51.698;-0.292;2023-11-22T07:15:14;10.10;;;5.13;;
78004;SDS011;67209;51.698;-0.292;2023-11-22T07:17:40;9.32;;;4.30;;
78004;SDS011;67209;51.698;-0.292;2023-11-22T07:20:07;12.93;;;3.95;;
78004;SDS011;67209;51.698;-0.292;2023-11-22T07:22:41;13.63;;;4.53;;
78004;SDS011;67209;51.698;-0.292;2023-11-22T07:25:08;15.50;;;4.60;;
78004;SDS011;67209;51.698;-0.292;2023-11-22T07:27:46;9.10;;;4.13;;
78004;SDS011;67209;51.698;-0.292;2023-11-22T07:30:13;8.02;;;3.78;;
78004;SDS011;67209;51.698;-0.292;2023-11-22T07:32:39;28.15;;;5.60;;
78004;SDS011;67209;51.698;-0.292;2023-11-22T07:35:06;9.20;;;3.90;;
78004;SDS011;67209;51.698;-0.292;2023-11-22T07:37:34;8.30;;;3.78;;
78004;SDS011;67209;51.698;-0.292;2023-11-22T07:40:01;9.02;;;3.50;;
78004;SDS011;67209;51.698;-0.292;2023-11-22T07:42:32;6.57;;;3.25;;
78004;SDS011;67209;51.698;-0.292;2023-11-22T07:44:58;8.05;;;3.55;;
78004;SDS011;67209;51.698;-0.292;2023-11-22T07:47:25;9.75;;;3.40;;
78004;SDS011;67209;51.698;-0.292;2023-11-22T07:49:51;8.90;;;3.58;;
78004;SDS011;67209;51.698;-0.292;2023-11-22T07:52:17;12.70;;;3.45;;
78004;SDS011;67209;51.698;-0.292;2023-11-22T07:54:43;11.82;;;4.18;;
78004;SDS011;67209;51.698;-0.292;2023-11-22T07:57:09;9.35;;;3.40;;
78004;SDS011;67209;51.698;-0.292;2023-11-22T07:59:36;9.23;;;3.47;;
78004;SDS011;67209;51.698;-0.292;2023-11-22T08:02:02;11.05;;;3.55;;
78004;SDS011;67209;51.698;-0.292;2023-11-22T08:04:31;7.35;;;3.83;;
78004;SDS011;67209;51.698;-0.292;2023-11-22T08:06:57;9.73;;;3.85;;
78004;SDS011;67209;51.698;-0.292;2023-11-22T08:09:24;8.95;;;4.00;;
78004;SDS011;67209;51.698;-0.292;2023-11-22T08:11:50;10.18;;;4.13;;
78004;SDS011;67209;51.698;-0.292;2023-11-22T08:14:17;14.48;;;4.85;;
78004;SDS011;67209;51.698;-0.292;2023-11-22T08:16:46;11.50;;;4.18;;
78004;SDS011;67209;51.698;-0.292;2023-11-22T08:19:12;12.30;;;4.97;;
78004;SDS011;67209;51.698;-0.292;2023-11-22T08:21:38;14.88;;;6.13;;
78004;SDS011;67209;51.698;-0.292;2023-11-22T08:24:04;13.75;;;5.43;;
78004;SDS011;67209;51.698;-0.292;2023-11-22T08:26:30;20.30;;;6.05;;
78004;SDS011;67209;51.698;-0.292;2023-11-22T08:28:57;12.90;;;5.68;;
78004;SDS011;67209;51.698;-0.292;2023-11-22T08:31:23;61.00;;;10.38;;
78004;SDS011;67209;51.698;-0.292;2023-11-22T08:33:49;14.20;;;4.85;;
78004;SDS011;67209;51.698;-0.292;2023-11-22T08:36:15;13.00;;;4.68;;
78004;SDS011;67209;51.698;-0.292;2023-11-22T08:38:41;15.27;;;4.97;;
78004;SDS011;67209;51.698;-0.292;2023-11-22T08:41:08;14.98;;;5.43;;
78004;SDS011;67209;51.698;-0.292;2023-11-22T08:43:38;10.38;;;4.95;;
78004;SDS011;67209;51.698;-0.292;2023-11-22T08:46:04;12.77;;;5.45;;
78004;SDS011;67209;51.698;-0.292;2023-11-22T08:48:32;29.98;;;7.38;;
78004;SDS011;67209;51.698;-0.292;2023-11-22T08:50:58;15.57;;;5.95;;
78004;SDS011;67209;51.698;-0.292;2023-11-22T08:53:24;15.30;;;6.60;;
78004;SDS011;67209;51.698;-0.292;2023-11-22T08:55:50;15.65;;;6.32;;
78004;SDS011;67209;51.698;-0.292;2023-11-22T08:58:19;15.55;;;6.80;;
78004;SDS011;67209;51.698;-0.292;2023-11-22T09:00:47;13.98;;;6.00;;
78004;SDS011;67209;51.698;-0.292;2023-11-22T09:03:13;13.98;;;6.45;;
78004;SDS011;67209;51.698;-0.292;2023-11-22T09:05:39;14.85;;;6.05;;
78004;SDS011;67209;51.698;-0.292;2023-11-22T09:08:06;12.43;;;6.35;;
78004;SDS011;67209;51.698;-0.292;2023-11-22T09:10:32;15.50;;;6.10;;
78004;SDS011;67209;51.698;-0.292;2023-11-22T09:12:58;12.15;;;6.93;;
78004;SDS011;67209;51.698;-0.292;2023-11-22T09:15:25;22.40;;;6.95;;
78004;SDS011;67209;51.698;-0.292;2023-11-22T09:17:54;15.23;;;6.50;;
78004;SDS011;67209;51.698;-0.292;2023-11-22T09:20:21;15.57;;;7.03;;
78004;SDS011;67209;51.698;-0.292;2023-11-22T09:22:49;14.10;;;6.95;;
78004;SDS011;67209;51.698;-0.292;2023-11-22T09:25:16;13.65;;;6.65;;
78004;SDS011;67209;51.698;-0.292;2023-11-22T09:27:44;19.58;;;6.70;;
78004;SDS011;67209;51.698;-0.292;2023-11-22T09:30:20;16.38;;;6.50;;
78004;SDS011;67209;51.698;-0.292;2023-11-22T09:33:13;12.63;;;6.32;;
78004;SDS011;67209;51.698;-0.292;2023-11-22T09:35:40;9.88;;;5.55;;
78004;SDS011;67209;51.698;-0.292;2023-11-22T09:38:08;13.82;;;5.53;;
78004;SDS011;67209;51.698;-0.292;2023-11-22T09:40:40;16.20;;;5.82;;
78004;SDS011;67209;51.698;-0.292;2023-11-22T09:43:06;12.18;;;5.03;;
78004;SDS011;67209;51.698;-0.292;2023-11-22T09:45:32;11.57;;;5.30;;
78004;SDS011;67209;51.698;-0.292;2023-11-22T09:48:00;10.73;;;3.95;;
78004;SDS011;67209;51.698;-0.292;2023-11-22T09:53:19;13.75;;;4.10;;
78004;SDS011;67209;51.698;-0.292;2023-11-22T09:55:48;12.07;;;4.72;;
78004;SDS011;67209;51.698;-0.292;2023-11-22T09:58:14;10.63;;;4.47;;
78004;SDS011;67209;51.698;-0.292;2023-11-22T10:00:42;10.50;;;4.20;;
78004;SDS011;67209;51.698;-0.292;2023-11-22T10:03:09;9.85;;;4.43;;
78004;SDS011;67209;51.698;-0.292;2023-11-22T10:05:39;12.88;;;4.60;;
78004;SDS011;67209;51.698;-0.292;2023-11-22T10:08:05;10.82;;;4.30;;
78004;SDS011;67209;51.698;-0.292;2023-11-22T10:10:34;17.23;;;5.53;;
78004;SDS011;67209;51.698;-0.292;2023-11-22T10:13:02;13.70;;;4.57;;
78004;SDS011;67209;51.698;-0.292;2023-11-22T10:15:28;13.48;;;5.50;;
78004;SDS011;67209;51.698;-0.292;2023-11-22T10:17:58;12.10;;;5.68;;
78004;SDS011;67209;51.698;-0.292;2023-11-22T10:20:48;15.93;;;6.05;;
78004;SDS011;67209;51.698;-0.292;2023-11-22T10:23:13;28.30;;;7.28;;
78004;SDS011;67209;51.698;-0.292;2023-11-22T10:25:49;18.90;;;5.03;;
78004;SDS011;67209;51.698;-0.292;2023-11-22T10:28:19;9.63;;;4.57;;
78004;SDS011;67209;51.698;-0.292;2023-11-22T10:30:46;19.08;;;5.50;;
78004;SDS011;67209;51.698;-0.292;2023-11-22T10:33:13;9.68;;;3.90;;
78004;SDS011;67209;51.698;-0.292;2023-11-22T10:35:43;8.70;;;3.90;;
78004;SDS011;67209;51.698;-0.292;2023-11-22T10:38:10;12.48;;;3.70;;
78004;SDS011;67209;51.698;-0.292;2023-11-22T10:40:37;9.77;;;4.10;;
78004;SDS011;67209;51.698;-0.292;2023-11-22T10:43:03;10.23;;;3.88;;
78004;SDS011;67209;51.698;-0.292;2023-11-22T10:45:29;9.65;;;4.10;;
78004;SDS011;67209;51.698;-0.292;2023-11-22T10:47:59;10.55;;;4.32;;
78004;SDS011;67209;51.698;-0.292;2023-11-22T10:50:27;7.97;;;3.97;;
78004;SDS011;67209;51.698;-0.292;2023-11-22T10:52:53;13.50;;;4.40;;
78004;SDS011;67209;51.698;-0.292;2023-11-22T10:55:25;8.73;;;4.05;;
78004;SDS011;67209;51.698;-0.292;2023-11-22T10:57:52;8.88;;;4.65;;
78004;SDS011;67209;51.698;-0.292;2023-11-22T11:00:20;8.95;;;4.25;;
78004;SDS011;67209;51.698;-0.292;2023-11-22T11:02:48;8.90;;;4.35;;
78004;SDS011;67209;51.698;-0.292;2023-11-22T11:05:18;16.08;;;4.93;;
78004;SDS011;67209;51.698;-0.292;2023-11-22T11:07:53;8.88;;;4.25;;
78004;SDS011;67209;51.698;-0.292;2023-11-22T11:10:20;8.85;;;4.10;;
78004;SDS011;67209;51.698;-0.292;2023-11-22T11:12:47;9.18;;;4.03;;
78004;SDS011;67209;51.698;-0.292;2023-11-22T11:15:14;8.27;;;3.88;;
78004;SDS011;67209;51.698;-0.292;2023-11-22T11:17:42;8.25;;;3.90;;
78004;SDS011;67209;51.698;-0.292;2023-11-22T11:20:10;8.13;;;3.85;;
78004;SDS011;67209;51.698;-0.292;2023-11-22T11:22:38;8.38;;;3.38;;
78004;SDS011;67209;51.698;-0.292;2023-11-22T11:25:05;9.45;;;3.67;;
78004;SDS011;67209;51.698;-0.292;2023-11-22T11:27:33;8.02;;;3.38;;
78004;SDS011;67209;51.698;-0.292;2023-11-22T11:32:50;7.13;;;2.90;;
78004;SDS011;67209;51.698;-0.292;2023-11-22T11:37:50;8.15;;;2.70;;
78004;SDS011;67209;51.698;-0.292;2023-11-22T11:40:31;7.82;;;3.40;;
78004;SDS011;67209;51.698;-0.292;2023-11-22T11:42:57;7.93;;;2.95;;
78004;SDS011;67209;51.698;-0.292;2023-11-22T11:45:24;7.53;;;3.00;;
78004;SDS011;67209;51.698;-0.292;2023-11-22T11:47:51;8.70;;;3.67;;
78004;SDS011;67209;51.698;-0.292;2023-11-22T11:50:20;9.00;;;3.85;;
78004;SDS011;67209;51.698;-0.292;2023-11-22T11:52:47;8.82;;;3.25;;
78004;SDS011;67209;51.698;-0.292;2023-11-22T11:55:13;6.45;;;3.25;;
78004;SDS011;67209;51.698;-0.292;2023-11-22T11:57:41;8.93;;;3.67;;
78004;SDS011;67209;51.698;-0.292;2023-11-22T12:00:08;9.10;;;3.63;;
78004;SDS011;67209;51.698;-0.292;2023-11-22T12:02:39;9.32;;;5.20;;
78004;SDS011;67209;51.698;-0.292;2023-11-22T12:05:05;9.68;;;6.10;;
78004;SDS011;67209;51.698;-0.292;2023-11-22T12:07:35;11.75;;;5.15;;
78004;SDS011;67209;51.698;-0.292;2023-11-22T12:10:03;12.90;;;5.38;;
78004;SDS011;67209;51.698;-0.292;2023-11-22T12:12:34;8.95;;;5.00;;
78004;SDS011;67209;51.698;-0.292;2023-11-22T12:15:00;14.45;;;5.68;;
78004;SDS011;67209;51.698;-0.292;2023-11-22T12:17:26;10.18;;;4.93;;
78004;SDS011;67209;51.698;-0.292;2023-11-22T12:19:53;9.25;;;4.00;;
78004;SDS011;67209;51.698;-0.292;2023-11-22T12:22:20;7.90;;;3.35;;
78004;SDS011;67209;51.698;-0.292;2023-11-22T12:24:46;19.52;;;4.15;;
78004;SDS011;67209;51.698;-0.292;2023-11-22T12:27:12;9.00;;;3.72;;
78004;SDS011;67209;51.698;-0.292;2023-11-22T12:29:39;10.10;;;3.70;;
78004;SDS011;67209;51.698;-0.292;2023-11-22T12:32:07;9.55;;;3.70;;
78004;SDS011;67209;51.698;-0.292;2023-11-22T12:34:34;10.73;;;3.80;;
78004;SDS011;67209;51.698;-0.292;2023-11-22T12:37:01;6.10;;;3.00;;
78004;SDS011;67209;51.698;-0.292;2023-11-22T12:39:27;6.20;;;3.45;;
78004;SDS011;67209;51.698;-0.292;2023-11-22T12:41:54;7.78;;;3.70;;
78004;SDS011;67209;51.698;-0.292;2023-11-22T12:44:23;7.05;;;3.85;;
78004;SDS011;67209;51.698;-0.292;2023-11-22T12:46:52;6.05;;;3.30;;
78004;SDS011;67209;51.698;-0.292;2023-11-22T12:49:23;14.50;;;4.32;;
78004;SDS011;67209;51.698;-0.292;2023-11-22T12:51:52;7.43;;;3.10;;
78004;SDS011;67209;51.698;-0.292;2023-11-22T12:54:20;7.22;;;3.22;;
78004;SDS011;67209;51.698;-0.292;2023-11-22T12:56:52;10.65;;;3.30;;
78004;SDS011;67209;51.698;-0.292;2023-11-22T12:59:25;7.90;;;3.47;;
78004;SDS011;67209;51.698;-0.292;2023-11-22T13:01:55;11.77;;;4.20;;
78004;SDS011;67209;51.698;-0.292;2023-11-22T13:04:27;10.50;;;4.65;;
78004;SDS011;67209;51.698;-0.292;2023-11-22T13:06:54;9.05;;;4.60;;
78004;SDS011;67209;51.698;-0.292;2023-11-22T13:09:20;9.27;;;4.57;;
78004;SDS011;67209;51.698;-0.292;2023-11-22T13:11:46;8.10;;;3.90;;
78004;SDS011;67209;51.698;-0.292;2023-11-22T13:14:12;11.20;;;4.65;;
78004;SDS011;67209;51.698;-0.292;2023-11-22T13:16:42;8.10;;;3.70;;
78004;SDS011;67209;51.698;-0.292;2023-11-22T13:19:10;7.05;;;3.20;;
78004;SDS011;67209;51.698;-0.292;2023-11-22T13:21:36;10.27;;;3.00;;
78004;SDS011;67209;51.698;-0.292;2023-11-22T13:24:03;8.15;;;2.83;;
78004;SDS011;67209;51.698;-0.292;2023-11-22T13:26:31;6.30;;;3.10;;
78004;SDS011;67209;51.698;-0.292;2023-11-22T13:29:00;8.00;;;2.92;;
78004;SDS011;67209;51.698;-0.292;2023-11-22T13:31:26;6.38;;;2.92;;
78004;SDS011;67209;51.698;-0.292;2023-11-22T13:33:53;6.93;;;2.90;;
78004;SDS011;67209;51.698;-0.292;2023-11-22T13:36:20;7.88;;;2.97;;
78004;SDS011;67209;51.698;-0.292;2023-11-22T13:38:46;6.53;;;2.85;;
78004;SDS011;67209;51.698;-0.292;2023-11-22T13:41:13;7.40;;;3.10;;
78004;SDS011;67209;51.698;-0.292;2023-11-22T13:43:39;7.80;;;2.75;;
78004;SDS011;67209;51.698;-0.292;2023-11-22T13:46:05;6.10;;;3.22;;
78004;SDS011;67209;51.698;-0.292;2023-11-22T13:48:31;6.88;;;3.10;;
78004;SDS011;67209;51.698;-0.292;2023-11-22T13:50:59;6.03;;;3.25;;
78004;SDS011;67209;51.698;-0.292;2023-11-22T13:53:25;6.68;;;2.83;;
78004;SDS011;67209;51.698;-0.292;2023-11-22T13:55:55;5.32;;;2.67;;
78004;SDS011;67209;51.698;-0.292;2023-11-22T13:58:23;5.03;;;2.58;;
78004;SDS011;67209;51.698;-0.292;2023-11-22T14:00:49;5.22;;;2.60;;
78004;SDS011;67209;51.698;-0.292;2023-11-22T14:03:19;7.85;;;2.83;;
78004;SDS011;67209;51.698;-0.292;2023-11-22T14:05:47;7.47;;;2.97;;
78004;SDS011;67209;51.698;-0.292;2023-11-22T14:08:13;7.93;;;2.67;;
78004;SDS011;67209;51.698;-0.292;2023-11-22T14:10:40;6.63;;;2.90;;
78004;SDS011;67209;51.698;-0.292;2023-11-22T14:13:07;10.45;;;3.17;;
78004;SDS011;67209;51.698;-0.292;2023-11-22T14:15:34;8.02;;;2.70;;
78004;SDS011;67209;51.698;-0.292;2023-11-22T14:18:00;7.05;;;2.85;;
78004;SDS011;67209;51.698;-0.292;2023-11-22T14:20:28;7.28;;;2.95;;
78004;SDS011;67209;51.698;-0.292;2023-11-22T14:22:54;5.45;;;2.63;;
78004;SDS011;67209;51.698;-0.292;2023-11-22T14:25:21;7.35;;;2.70;;
78004;SDS011;67209;51.698;-0.292;2023-11-22T14:27:48;10.52;;;2.63;;
78004;SDS011;67209;51.698;-0.292;2023-11-22T14:30:18;7.65;;;2.63;;
78004;SDS011;67209;51.698;-0.292;2023-11-22T14:32:46;6.70;;;2.95;;
78004;SDS011;67209;51.698;-0.292;2023-11-22T14:35:12;5.43;;;2.28;;
78004;SDS011;67209;51.698;-0.292;2023-11-22T14:37:39;8.52;;;2.53;;